Time;durP1;ratioP1;P1;durP2;ratioP2;P2;SDS_P1;SDS_P2;PMS_P1;PMS_P2;Temp;Humidity;BMP_temperature;BMP_pressure;BME280_temperature;BME280_humidity;BME280_pressure;Samples;Min_cycle;Max_cycle;Signal;HPM_P1;HPM_P2
2022/11/23 00:00:57;;;;;;;;;;;12.30;96.40;;;;;;5113930;28;20337;-66
2022/11/23 00:03:22;;;;;;;;;;;12.30;96.40;;;;;;5105148;28;19939;-65
2022/11/23 00:05:48;;;;;;;;;;;12.30;96.40;;;;;;5103397;28;20010;-67
2022/11/23 00:08:14;;;;;;;;;;;12.20;96.40;;;;;;5127991;28;19924;-65
2022/11/23 00:10:39;;;;;;;;;;;12.00;96.00;;;;;;5090127;28;19928;-66
2022/11/23 00:13:05;;;;;;;;;;;12.30;96.40;;;;;;5111918;28;19977;-66
2022/11/23 00:15:31;;;;;;;;;;;12.10;96.30;;;;;;5111943;28;19924;-66
2022/11/23 00:17:58;;;;;;;;;;;12.20;96.40;;;;;;5113565;28;20006;-65
2022/11/23 00:20:24;;;;;;;;;;;12.30;96.40;;;;;;5106027;28;19966;-66
2022/11/23 00:22:50;;;;;;;;;;;12.30;96.40;;;;;;5100832;28;19971;-65
2022/11/23 00:25:15;;;;;;;;;;;12.20;96.30;;;;;;5110168;28;19931;-67
2022/11/23 00:27:41;;;;;;;;;;;12.50;96.50;;;;;;5112096;28;19931;-66
2022/11/23 00:30:07;;;;;;;;;;;12.40;96.40;;;;;;5108640;28;19924;-65
2022/11/23 00:32:32;;;;;;;;;;;12.30;96.40;;;;;;5106056;28;19993;-64
2022/11/23 00:34:58;;;;;;;;;;;12.30;96.40;;;;;;5115320;28;19967;-65
2022/11/23 00:37:24;;;;;;;;;;;12.30;96.40;;;;;;5115651;28;20285;-66
2022/11/23 00:39:49;;;;;;;;;;;12.30;96.40;;;;;;5115277;28;19919;-65
2022/11/23 00:42:15;;;;;;;;;;;12.30;96.40;;;;;;5117330;28;20300;-67
2022/11/23 00:44:40;;;;;;;;;;;12.40;96.50;;;;;;5099140;28;19992;-65
2022/11/23 00:47:06;;;;;;;;;;;12.50;96.10;;;;;;5095330;28;19924;-65
2022/11/23 00:49:32;;;;;;;;;;;12.30;96.50;;;;;;5096485;28;19932;-64
2022/11/23 00:51:57;;;;;;;;;;;12.10;96.40;;;;;;5114672;28;19923;-65
2022/11/23 00:54:23;;;;;;;;;;;12.20;96.40;;;;;;5124823;27;19924;-65
2022/11/23 00:56:49;;;;;;;;;;;12.50;96.50;;;;;;5115218;28;19930;-65
2022/11/23 00:59:14;;;;;;;;;;;12.50;96.50;;;;;;5097887;28;19924;-64
2022/11/23 01:01:40;;;;;;;;;;;12.30;96.40;;;;;;5107079;28;19927;-64
2022/11/23 01:04:06;;;;;;;;;;;12.30;96.40;;;;;;5114420;28;19969;-64
2022/11/23 01:06:32;;;;;;;;;;;;;;;;;;5090906;28;20384;-66
2022/11/23 01:08:58;;;;;;;;;;;12.20;96.40;;;;;;5110461;28;20015;-65
2022/11/23 01:11:25;;;;;;;;;;;12.40;96.40;;;;;;5112324;28;19968;-66
2022/11/23 01:13:50;;;;;;;;;;;12.10;96.40;;;;;;5131647;27;19930;-66
2022/11/23 01:16:17;;;;;;;;;;;12.10;96.40;;;;;;5106779;28;19923;-67
2022/11/23 01:18:42;;;;;;;;;;;12.30;96.50;;;;;;5115986;28;19972;-65
2022/11/23 01:21:08;;;;;;;;;;;12.10;96.40;;;;;;5131350;27;20018;-65
2022/11/23 01:23:34;;;;;;;;;;;12.20;96.50;;;;;;5101730;28;20036;-66
2022/11/23 01:26:18;;;;;;;;;;;12.30;96.50;;;;;;5101695;28;19924;-66
2022/11/23 01:28:43;;;;;;;;;;;12.40;96.50;;;;;;5084384;28;19977;-65
2022/11/23 01:31:10;;;;;;;;;;;12.20;96.50;;;;;;5109309;28;20385;-65
2022/11/23 01:33:36;;;;;;;;;;;12.10;96.50;;;;;;5114782;28;19924;-66
2022/11/23 01:36:28;;;;;;;;;;;12.30;96.50;;;;;;5111870;28;20007;-65
2022/11/23 01:38:53;;;;;;;;;;;12.30;96.50;;;;;;5093170;28;19931;-66
2022/11/23 01:41:20;;;;;;;;;;;12.50;96.60;;;;;;5100652;28;19924;-66
2022/11/23 01:43:46;;;;;;;;;;;12.30;96.50;;;;;;5101288;27;19986;-65
2022/11/23 01:46:12;;;;;;;;;;;12.00;96.50;;;;;;5096485;28;19967;-64
2022/11/23 01:48:39;;;;;;;;;;;12.30;96.50;;;;;;5102167;28;19926;-66
2022/11/23 01:51:05;;;;;;;;;;;12.30;96.50;;;;;;5096144;28;19928;-65
2022/11/23 01:53:31;;;;;;;;;;;12.30;96.50;;;;;;5108233;28;19923;-66
2022/11/23 01:55:59;;;;;;;;;;;12.40;96.50;;;;;;5094974;28;20022;-65
2022/11/23 01:58:24;;;;;;;;;;;12.10;96.50;;;;;;5125463;27;19964;-67
2022/11/23 02:00:50;;;;;;;;;;;12.10;96.20;;;;;;5095852;28;19963;-67
2022/11/23 02:03:16;;;;;;;;;;;12.50;96.60;;;;;;5093899;28;19924;-66
2022/11/23 02:05:42;;;;;;;;;;;;;;;;;;5097988;28;20026;-65
2022/11/23 02:08:08;;;;;;;;;;;12.40;96.60;;;;;;5112298;28;19931;-65
2022/11/23 02:10:33;;;;;;;;;;;12.20;96.60;;;;;;5082640;28;19924;-66
2022/11/23 02:13:00;;;;;;;;;;;12.30;96.60;;;;;;5078823;28;20015;-66
2022/11/23 02:15:26;;;;;;;;;;;12.10;96.50;;;;;;5103787;28;20445;-65
2022/11/23 02:17:52;;;;;;;;;;;;;;;;;;5113838;28;19924;-66
2022/11/23 02:20:18;;;;;;;;;;;12.50;96.70;;;;;;5113140;28;20042;-65
2022/11/23 02:22:59;;;;;;;;;;;12.30;96.60;;;;;;5092321;28;20077;-66
2022/11/23 02:25:48;;;;;;;;;;;12.40;96.60;;;;;;5109123;28;19924;-65
2022/11/23 02:28:21;;;;;;;;;;;12.50;96.70;;;;;;5102654;28;19924;-66
2022/11/23 02:30:47;;;;;;;;;;;;;;;;;;5080376;28;19924;-66
2022/11/23 02:33:13;;;;;;;;;;;12.40;96.70;;;;;;5101061;28;19923;-66
2022/11/23 02:35:49;;;;;;;;;;;12.30;96.80;;;;;;5115308;28;19924;-64
2022/11/23 02:38:14;;;;;;;;;;;12.30;96.80;;;;;;5113264;28;19924;-66
2022/11/23 02:40:40;;;;;;;;;;;12.40;96.80;;;;;;5103776;28;19924;-65
2022/11/23 02:43:05;;;;;;;;;;;12.50;96.80;;;;;;5076563;28;20366;-67
2022/11/23 02:45:36;;;;;;;;;;;12.40;96.70;;;;;;5129513;27;19935;-66
2022/11/23 02:48:02;;;;;;;;;;;;;;;;;;5109234;28;19950;-64
2022/11/23 02:50:27;;;;;;;;;;;12.50;96.80;;;;;;5094770;28;20296;-64
2022/11/23 02:52:53;;;;;;;;;;;12.30;96.80;;;;;;5094433;28;19924;-65
2022/11/23 02:55:19;;;;;;;;;;;12.20;96.80;;;;;;5108202;28;19949;-66
2022/11/23 02:57:44;;;;;;;;;;;12.20;96.80;;;;;;5111998;28;19931;-65
2022/11/23 03:00:10;;;;;;;;;;;;;;;;;;5095868;28;19927;-66
2022/11/23 03:02:36;;;;;;;;;;;12.40;96.90;;;;;;5108308;28;19946;-66
2022/11/23 03:05:01;;;;;;;;;;;12.60;96.90;;;;;;5111863;28;19931;-65
2022/11/23 03:07:27;;;;;;;;;;;12.30;96.80;;;;;;5112735;28;19924;-65
2022/11/23 03:09:53;;;;;;;;;;;12.50;96.90;;;;;;5113567;28;20011;-65
2022/11/23 03:12:18;;;;;;;;;;;12.50;96.90;;;;;;5113421;28;20373;-65
2022/11/23 03:14:44;;;;;;;;;;;12.40;96.90;;;;;;5112385;28;19939;-65
2022/11/23 03:17:10;;;;;;;;;;;12.30;96.90;;;;;;5112943;28;20373;-64
2022/11/23 03:19:35;;;;;;;;;;;12.50;96.90;;;;;;5116391;28;20284;-65
2022/11/23 03:22:01;;;;;;;;;;;;;;;;;;5113231;28;19934;-66
2022/11/23 03:24:27;;;;;;;;;;;12.40;96.90;;;;;;5101511;28;20061;-66
2022/11/23 03:26:53;;;;;;;;;;;12.30;96.90;;;;;;5108346;28;19920;-64
2022/11/23 03:29:19;;;;;;;;;;;12.30;96.90;;;;;;5112229;28;20312;-65
2022/11/23 03:31:45;;;;;;;;;;;;;;;;;;5113380;28;20054;-65
2022/11/23 03:34:11;;;;;;;;;;;;;;;;;;5113957;28;19928;-65
2022/11/23 03:36:37;;;;;;;;;;;12.40;97.00;;;;;;5107642;28;19925;-66
2022/11/23 03:39:02;;;;;;;;;;;12.40;96.90;;;;;;5103429;28;19924;-64
2022/11/23 03:41:28;;;;;;;;;;;12.50;97.00;;;;;;5094650;28;19931;-65
2022/11/23 03:43:53;;;;;;;;;;;12.60;97.00;;;;;;5109412;28;19931;-66
2022/11/23 03:46:19;;;;;;;;;;;12.50;97.00;;;;;;5101428;28;19924;-64
2022/11/23 03:48:45;;;;;;;;;;;12.10;97.00;;;;;;5111508;28;20331;-65
2022/11/23 03:51:10;;;;;;;;;;;12.40;97.00;;;;;;5112947;28;20295;-64
2022/11/23 03:53:36;;;;;;;;;;;12.20;97.00;;;;;;5113375;28;20023;-63
2022/11/23 03:56:02;;;;;;;;;;;12.30;97.00;;;;;;5113752;28;19927;-65
2022/11/23 03:58:27;;;;;;;;;;;12.20;97.00;;;;;;5111876;28;20010;-66
2022/11/23 04:00:53;;;;;;;;;;;12.60;97.20;;;;;;5113186;28;19924;-65
2022/11/23 04:03:18;;;;;;;;;;;12.40;97.10;;;;;;5111196;28;19925;-64
2022/11/23 04:05:44;;;;;;;;;;;12.20;97.10;;;;;;5114077;28;19924;-65
2022/11/23 04:08:10;;;;;;;;;;;12.50;97.10;;;;;;5112171;28;20381;-66
2022/11/23 04:10:35;;;;;;;;;;;12.60;97.20;;;;;;5116514;28;19931;-65
2022/11/23 04:13:01;;;;;;;;;;;12.30;96.80;;;;;;5111918;28;19928;-64
2022/11/23 04:15:27;;;;;;;;;;;12.40;97.10;;;;;;5115817;28;19924;-65
2022/11/23 04:17:53;;;;;;;;;;;12.20;97.10;;;;;;5117280;28;19976;-65
2022/11/23 04:20:18;;;;;;;;;;;12.50;97.20;;;;;;5101137;28;19931;-65
2022/11/23 04:22:44;;;;;;;;;;;12.40;97.20;;;;;;5104301;28;19919;-66
2022/11/23 04:25:10;;;;;;;;;;;12.20;97.10;;;;;;5116247;28;19931;-66
2022/11/23 04:27:35;;;;;;;;;;;12.50;97.20;;;;;;5115681;28;19927;-65
2022/11/23 04:30:01;;;;;;;;;;;12.50;97.20;;;;;;5115753;28;19932;-65
2022/11/23 04:32:26;;;;;;;;;;;12.50;97.20;;;;;;5132593;27;19928;-64
2022/11/23 04:34:52;;;;;;;;;;;12.40;97.20;;;;;;5117382;28;19946;-65
2022/11/23 04:37:18;;;;;;;;;;;12.50;97.30;;;;;;5115320;28;19977;-64
2022/11/23 04:39:43;;;;;;;;;;;12.70;97.30;;;;;;5115697;28;19928;-65
2022/11/23 04:42:12;;;;;;;;;;;12.40;97.20;;;;;;5131611;27;19924;-65
2022/11/23 04:44:38;;;;;;;;;;;12.60;97.30;;;;;;5126532;27;19928;-63
2022/11/23 04:47:03;;;;;;;;;;;12.50;97.20;;;;;;5113155;28;19984;-65
2022/11/23 04:49:29;;;;;;;;;;;12.50;97.30;;;;;;5115231;28;20421;-64
2022/11/23 04:51:55;;;;;;;;;;;;;;;;;;5130307;27;20018;-65
2022/11/23 04:54:21;;;;;;;;;;;;;;;;;;5095102;28;19924;-66
2022/11/23 04:56:47;;;;;;;;;;;12.50;97.30;;;;;;5114298;28;20019;-64
2022/11/23 04:59:12;;;;;;;;;;;12.40;97.30;;;;;;5116506;28;20369;-65
2022/11/23 05:01:38;;;;;;;;;;;12.40;97.30;;;;;;5114331;28;20281;-64
2022/11/23 05:04:04;;;;;;;;;;;12.50;97.40;;;;;;5115970;28;19931;-65
2022/11/23 05:06:29;;;;;;;;;;;12.30;97.30;;;;;;5114534;28;19931;-65
2022/11/23 05:08:55;;;;;;;;;;;12.60;97.40;;;;;;5107698;28;19924;-66
2022/11/23 05:11:21;;;;;;;;;;;12.50;97.30;;;;;;5108575;28;19936;-64
2022/11/23 05:13:47;;;;;;;;;;;;;;;;;;5116011;28;19978;-65
2022/11/23 05:16:12;;;;;;;;;;;12.40;97.30;;;;;;5113213;28;19923;-64
2022/11/23 05:18:38;;;;;;;;;;;12.40;97.40;;;;;;5114608;28;19965;-66
2022/11/23 05:21:03;;;;;;;;;;;12.40;97.40;;;;;;5113471;28;20414;-65
2022/11/23 05:23:29;;;;;;;;;;;12.40;97.40;;;;;;5101250;27;19947;-64
2022/11/23 05:25:55;;;;;;;;;;;12.40;97.40;;;;;;5113355;28;20040;-64
2022/11/23 05:28:20;;;;;;;;;;;12.70;97.50;;;;;;5104370;28;19920;-66
2022/11/23 05:30:46;;;;;;;;;;;12.60;97.50;;;;;;5115145;28;20331;-64
2022/11/23 05:33:12;;;;;;;;;;;12.40;97.40;;;;;;5111032;28;20435;-64
2022/11/23 05:35:38;;;;;;;;;;;;;;;;;;5129529;27;20329;-65
2022/11/23 05:38:03;;;;;;;;;;;12.30;97.40;;;;;;5108808;28;20006;-64
2022/11/23 05:40:29;;;;;;;;;;;12.30;97.40;;;;;;5104018;28;20014;-64
2022/11/23 05:42:55;;;;;;;;;;;12.50;97.40;;;;;;5109222;28;19924;-64
2022/11/23 05:45:21;;;;;;;;;;;12.40;97.40;;;;;;5096206;28;19931;-64
2022/11/23 05:47:50;;;;;;;;;;;12.50;97.40;;;;;;5081680;28;20305;-64
2022/11/23 05:50:15;;;;;;;;;;;12.40;97.40;;;;;;5094387;28;19985;-64
2022/11/23 05:52:41;;;;;;;;;;;12.40;97.40;;;;;;5102316;28;19967;-65
2022/11/23 05:55:07;;;;;;;;;;;12.50;97.40;;;;;;5114547;28;19930;-64
2022/11/23 05:57:32;;;;;;;;;;;12.60;97.40;;;;;;5102258;28;19968;-65
2022/11/23 05:59:58;;;;;;;;;;;12.40;97.40;;;;;;5095280;28;19924;-64
2022/11/23 06:02:24;;;;;;;;;;;12.30;97.40;;;;;;5095102;28;19924;-64
2022/11/23 06:04:49;;;;;;;;;;;12.60;97.50;;;;;;5114095;28;19930;-65
2022/11/23 06:07:15;;;;;;;;;;;12.70;97.50;;;;;;5113101;28;19924;-65
2022/11/23 06:09:40;;;;;;;;;;;12.50;97.50;;;;;;5100021;28;20023;-64
2022/11/23 06:12:06;;;;;;;;;;;12.70;97.50;;;;;;5096674;28;19966;-64
2022/11/23 06:14:32;;;;;;;;;;;12.60;97.50;;;;;;5113387;28;19924;-64
2022/11/23 06:16:57;;;;;;;;;;;12.50;97.50;;;;;;5108201;28;19928;-64
2022/11/23 06:19:23;;;;;;;;;;;12.70;97.60;;;;;;5113230;28;20426;-65
2022/11/23 06:21:49;;;;;;;;;;;12.60;97.50;;;;;;5114624;28;19931;-65
2022/11/23 06:24:14;;;;;;;;;;;12.40;97.50;;;;;;5094815;28;19928;-64
2022/11/23 06:26:40;;;;;;;;;;;12.50;97.60;;;;;;5103727;28;19923;-65
2022/11/23 06:29:05;;;;;;;;;;;12.40;97.50;;;;;;5105696;28;19932;-64
2022/11/23 06:31:31;;;;;;;;;;;12.30;97.50;;;;;;5113517;28;19935;-64
2022/11/23 06:33:57;;;;;;;;;;;12.50;97.50;;;;;;5114143;28;20400;-64
2022/11/23 06:36:22;;;;;;;;;;;12.40;97.60;;;;;;5113709;28;19959;-65
2022/11/23 06:38:48;;;;;;;;;;;12.50;97.60;;;;;;5095537;28;20300;-66
2022/11/23 06:41:13;;;;;;;;;;;12.60;97.60;;;;;;5095393;28;19931;-66
2022/11/23 06:43:39;;;;;;;;;;;12.40;97.50;;;;;;5126543;27;19985;-64
2022/11/23 06:46:05;;;;;;;;;;;12.50;97.60;;;;;;5112839;28;19924;-64
2022/11/23 06:48:31;;;;;;;;;;;12.40;97.60;;;;;;5113158;28;19963;-64
2022/11/23 06:50:57;;;;;;;;;;;12.80;97.70;;;;;;5112873;28;20412;-66
2022/11/23 06:53:23;;;;;;;;;;;12.40;97.60;;;;;;5101983;28;19924;-65
2022/11/23 06:55:49;;;;;;;;;;;12.60;97.70;;;;;;5094121;28;19924;-64
2022/11/23 06:58:14;;;;;;;;;;;12.70;97.70;;;;;;5102587;28;19924;-65
2022/11/23 07:00:40;;;;;;;;;;;12.30;97.30;;;;;;5097872;28;19924;-64
2022/11/23 07:03:05;;;;;;;;;;;12.80;97.70;;;;;;5105286;28;20377;-64
2022/11/23 07:05:31;;;;;;;;;;;12.70;97.70;;;;;;5095582;28;20415;-65
2022/11/23 07:07:57;;;;;;;;;;;12.40;97.60;;;;;;5101753;28;19923;-64
2022/11/23 07:10:22;;;;;;;;;;;12.60;97.60;;;;;;5106016;28;20297;-66
2022/11/23 07:12:48;;;;;;;;;;;12.50;97.60;;;;;;5107130;28;19924;-64
2022/11/23 07:15:13;;;;;;;;;;;12.40;97.60;;;;;;5112351;27;19925;-64
2022/11/23 07:17:39;;;;;;;;;;;12.60;97.60;;;;;;5104585;28;19928;-65
2022/11/23 07:20:08;;;;;;;;;;;12.60;97.60;;;;;;5090551;28;19920;-64
2022/11/23 07:22:34;;;;;;;;;;;12.80;97.70;;;;;;5103335;28;19923;-66
2022/11/23 07:25:00;;;;;;;;;;;12.40;97.60;;;;;;5111801;28;19924;-64
2022/11/23 07:27:26;;;;;;;;;;;;;;;;;;5099804;28;19924;-65
2022/11/23 07:29:51;;;;;;;;;;;12.70;97.70;;;;;;5092780;28;20011;-66
2022/11/23 07:32:17;;;;;;;;;;;12.40;97.60;;;;;;5097652;28;20010;-65
2022/11/23 07:34:43;;;;;;;;;;;12.40;97.60;;;;;;5113701;28;20343;-65
2022/11/23 07:37:08;;;;;;;;;;;12.50;97.60;;;;;;5102462;28;20007;-66
2022/11/23 07:39:34;;;;;;;;;;;;;;;;;;5129032;28;19965;-65
2022/11/23 07:42:00;;;;;;;;;;;12.70;97.70;;;;;;5113284;28;19924;-65
2022/11/23 07:44:26;;;;;;;;;;;12.50;97.70;;;;;;5117410;28;19930;-64
2022/11/23 07:46:52;;;;;;;;;;;;;;;;;;5102664;28;19928;-65
2022/11/23 07:49:17;;;;;;;;;;;12.50;97.70;;;;;;5102058;28;19963;-65
2022/11/23 07:51:43;;;;;;;;;;;12.70;97.70;;;;;;5100752;28;20347;-65
2022/11/23 07:54:08;;;;;;;;;;;12.40;97.70;;;;;;5115502;27;19938;-64
2022/11/23 07:56:36;;;;;;;;;;;12.50;97.70;;;;;;5116438;28;20315;-65
2022/11/23 07:59:02;;;;;;;;;;;12.30;97.70;;;;;;5098764;28;19924;-68
2022/11/23 08:01:30;;;;;;;;;;;12.50;97.80;;;;;;5116789;28;19924;-69
2022/11/23 08:03:55;;;;;;;;;;;12.70;97.80;;;;;;5118271;28;20304;-64
2022/11/23 08:06:21;;;;;;;;;;;12.80;97.90;;;;;;5118175;28;19981;-64
2022/11/23 08:08:47;;;;;;;;;;;12.40;97.70;;;;;;5114099;28;19932;-64
2022/11/23 08:11:19;;;;;;;;;;;12.60;97.80;;;;;;5107050;28;19930;-64
2022/11/23 08:13:45;;;;;;;;;;;12.40;97.70;;;;;;5079071;28;20038;-63
2022/11/23 08:16:10;;;;;;;;;;;12.70;97.80;;;;;;5113220;28;20022;-64
2022/11/23 08:18:36;;;;;;;;;;;12.90;97.90;;;;;;5108094;28;19924;-64
2022/11/23 08:21:02;;;;;;;;;;;;;;;;;;5096153;28;19927;-63
2022/11/23 08:23:28;;;;;;;;;;;12.70;97.90;;;;;;5095906;28;19924;-64
2022/11/23 08:25:53;;;;;;;;;;;12.70;97.80;;;;;;5096735;28;19924;-64
2022/11/23 08:28:19;;;;;;;;;;;12.90;97.80;;;;;;5106414;28;19957;-64
2022/11/23 08:30:45;;;;;;;;;;;12.70;97.80;;;;;;5117622;28;19992;-64
2022/11/23 08:33:10;;;;;;;;;;;12.70;97.80;;;;;;5099211;28;20401;-64
2022/11/23 08:35:36;;;;;;;;;;;12.70;97.80;;;;;;5116083;28;19931;-64
2022/11/23 08:38:05;;;;;;;;;;;12.80;97.80;;;;;;5117281;28;19923;-64
2022/11/23 08:40:31;;;;;;;;;;;12.70;97.80;;;;;;5114052;28;19953;-63
2022/11/23 08:42:56;;;;;;;;;;;12.90;97.90;;;;;;5097727;28;19924;-67
2022/11/23 08:45:22;;;;;;;;;;;12.70;97.80;;;;;;5107780;28;19943;-68
2022/11/23 08:47:47;;;;;;;;;;;12.80;97.80;;;;;;5133037;27;20016;-68
2022/11/23 08:50:13;;;;;;;;;;;;;;;;;;5114067;28;19924;-63
2022/11/23 08:52:39;;;;;;;;;;;12.80;97.80;;;;;;5116134;28;20415;-64
2022/11/23 08:55:05;;;;;;;;;;;12.90;97.80;;;;;;5114507;28;19924;-68
2022/11/23 08:57:31;;;;;;;;;;;12.80;97.80;;;;;;5099005;28;19927;-68
2022/11/23 08:59:56;;;;;;;;;;;12.70;97.80;;;;;;5116865;28;19924;-65
2022/11/23 09:02:22;;;;;;;;;;;12.90;97.80;;;;;;5113142;28;19927;-66
2022/11/23 09:04:47;;;;;;;;;;;12.90;97.60;;;;;;5133004;27;19924;-65
2022/11/23 09:07:13;;;;;;;;;;;12.80;97.90;;;;;;5132601;27;19928;-68
2022/11/23 09:09:39;;;;;;;;;;;12.90;97.90;;;;;;5098493;28;19924;-69
2022/11/23 09:12:05;;;;;;;;;;;;;;;;;;5112921;28;19923;-66
2022/11/23 09:14:30;;;;;;;;;;;12.70;97.80;;;;;;5107377;28;19931;-64
2022/11/23 09:16:56;;;;;;;;;;;12.80;97.90;;;;;;5113505;28;19924;-64
2022/11/23 09:19:22;;;;;;;;;;;12.90;97.90;;;;;;5098166;28;19931;-65
2022/11/23 09:21:47;;;;;;;;;;;12.50;97.70;;;;;;5116190;28;20027;-65
2022/11/23 09:24:13;;;;;;;;;;;12.80;97.80;;;;;;5107448;28;19923;-65
2022/11/23 09:26:39;;;;;;;;;;;12.80;97.80;;;;;;5106145;28;20282;-65
2022/11/23 09:29:05;;;;;;;;;;;12.60;97.70;;;;;;5131254;27;19924;-65
2022/11/23 09:31:30;;;;;;;;;;;12.90;97.80;;;;;;5114991;28;19984;-68
2022/11/23 09:33:56;;;;;;;;;;;12.80;97.80;;;;;;5115577;28;19971;-66
2022/11/23 09:36:22;;;;;;;;;;;12.90;97.90;;;;;;5114781;28;19923;-65
2022/11/23 09:38:48;;;;;;;;;;;13.20;98.00;;;;;;5114924;28;19919;-68
2022/11/23 09:41:32;;;;;;;;;;;13.00;97.90;;;;;;5097812;28;19959;-66
2022/11/23 09:44:01;;;;;;;;;;;12.80;97.90;;;;;;5110517;28;20385;-65
2022/11/23 09:46:29;;;;;;;;;;;12.90;97.90;;;;;;5094382;28;19969;-65
2022/11/23 09:48:58;;;;;;;;;;;13.10;98.00;;;;;;5094096;28;20009;-65
2022/11/23 09:51:23;;;;;;;;;;;12.80;97.90;;;;;;5094184;28;20305;-66
2022/11/23 09:53:49;;;;;;;;;;;;;;;;;;5091811;28;19927;-65
2022/11/23 09:56:19;;;;;;;;;;;13.00;97.90;;;;;;5130889;27;19931;-65
2022/11/23 09:58:45;;;;;;;;;;;12.90;97.90;;;;;;5114807;28;20340;-67
2022/11/23 10:01:11;;;;;;;;;;;;;;;;;;5098283;28;19974;-71
2022/11/23 10:03:38;;;;;;;;;;;13.20;97.90;;;;;;5099475;28;19924;-65
2022/11/23 10:06:03;;;;;;;;;;;12.90;97.90;;;;;;5114425;28;19928;-65
2022/11/23 10:08:34;;;;;;;;;;;13.00;97.80;;;;;;5114632;28;20410;-65
2022/11/23 10:11:14;;;;;;;;;;;12.90;97.90;;;;;;5110456;28;20297;-65
2022/11/23 10:13:42;;;;;;;;;;;13.00;97.90;;;;;;5099071;28;19962;-65
2022/11/23 10:16:13;;;;;;;;;;;12.90;97.90;;;;;;5095415;28;19931;-66
2022/11/23 10:18:39;;;;;;;;;;;13.00;97.90;;;;;;5093821;28;20274;-65
2022/11/23 10:21:23;;;;;;;;;;;13.10;98.00;;;;;;5094677;28;19931;-65
2022/11/23 10:23:53;;;;;;;;;;;13.00;97.90;;;;;;5107620;28;20331;-66
2022/11/23 10:26:19;;;;;;;;;;;13.10;97.90;;;;;;5113076;28;19931;-66
2022/11/23 10:28:45;;;;;;;;;;;13.20;97.70;;;;;;5106667;28;19924;-66
2022/11/23 10:31:14;;;;;;;;;;;12.90;97.60;;;;;;5076510;28;20166;-66
2022/11/23 10:33:46;;;;;;;;;;;13.40;98.00;;;;;;5130154;27;20382;-65
2022/11/23 10:36:16;;;;;;;;;;;13.10;97.90;;;;;;5114110;28;20337;-64
2022/11/23 10:38:41;;;;;;;;;;;13.00;97.80;;;;;;5112600;28;19934;-66
2022/11/23 10:41:11;;;;;;;;;;;13.20;97.90;;;;;;5113538;28;19923;-65
2022/11/23 10:43:41;;;;;;;;;;;13.20;97.90;;;;;;5114975;28;19931;-65
2022/11/23 10:46:26;;;;;;;;;;;13.20;97.90;;;;;;5113539;28;19924;-65
2022/11/23 10:48:52;;;;;;;;;;;13.20;98.00;;;;;;5113937;28;19923;-65
2022/11/23 10:51:28;;;;;;;;;;;13.00;97.90;;;;;;5096252;28;20049;-64
2022/11/23 10:53:59;;;;;;;;;;;12.90;97.90;;;;;;5092877;28;20400;-65
2022/11/23 10:56:25;;;;;;;;;;;12.90;97.80;;;;;;5092817;28;19924;-65
2022/11/23 10:58:51;;;;;;;;;;;13.20;97.90;;;;;;5104064;28;19927;-65
2022/11/23 11:01:25;;;;;;;;;;;12.90;97.80;;;;;;5108742;28;19928;-66
2022/11/23 11:03:52;;;;;;;;;;;12.90;97.80;;;;;;5113790;28;19927;-64
2022/11/23 11:06:24;;;;;;;;;;;13.00;97.60;;;;;;5113497;28;20409;-65
2022/11/23 11:08:51;;;;;;;;;;;13.20;97.90;;;;;;5104320;28;19959;-65
2022/11/23 11:11:20;;;;;;;;;;;12.90;97.80;;;;;;5105997;28;19945;-66
2022/11/23 11:13:46;;;;;;;;;;;13.00;97.90;;;;;;5112211;28;19924;-65
2022/11/23 11:16:25;;;;;;;;;;;13.00;97.90;;;;;;5095671;28;20031;-66
2022/11/23 11:18:51;;;;;;;;;;;13.10;97.90;;;;;;5105558;28;19997;-67
2022/11/23 11:21:20;;;;;;;;;;;13.10;97.90;;;;;;5095882;28;19924;-65
2022/11/23 11:23:50;;;;;;;;;;;12.80;97.90;;;;;;5102158;28;20415;-66
2022/11/23 11:26:19;;;;;;;;;;;13.30;98.00;;;;;;5093989;28;19950;-65
2022/11/23 11:28:52;;;;;;;;;;;13.00;98.00;;;;;;5089102;28;19924;-65
2022/11/23 11:31:17;;;;;;;;;;;12.90;98.00;;;;;;5095939;28;19931;-68
2022/11/23 11:33:50;;;;;;;;;;;13.30;98.10;;;;;;5114492;28;19924;-65
2022/11/23 11:36:15;;;;;;;;;;;13.10;98.10;;;;;;5114334;28;19946;-65
2022/11/23 11:38:41;;;;;;;;;;;13.00;98.00;;;;;;5114286;28;20428;-65
2022/11/23 11:41:07;;;;;;;;;;;;;;;;;;5093907;28;19924;-66
2022/11/23 11:43:34;;;;;;;;;;;13.10;98.00;;;;;;5107659;28;19928;-65
2022/11/23 11:46:01;;;;;;;;;;;13.00;98.00;;;;;;5129424;28;20296;-65
2022/11/23 11:48:42;;;;;;;;;;;13.00;97.90;;;;;;5113767;28;20322;-65
2022/11/23 11:51:07;;;;;;;;;;;13.20;98.00;;;;;;5113142;28;19946;-65
2022/11/23 11:53:33;;;;;;;;;;;;;;;;;;5101768;28;19924;-66
2022/11/23 11:56:13;;;;;;;;;;;13.20;97.90;;;;;;5093807;28;19924;-64
2022/11/23 11:58:39;;;;;;;;;;;13.10;97.90;;;;;;5108492;28;20014;-65
2022/11/23 12:01:17;;;;;;;;;;;13.30;97.90;;;;;;5095933;28;20370;-65
2022/11/23 12:03:44;;;;;;;;;;;;;;;;;;5128714;28;20097;-65
2022/11/23 12:06:10;;;;;;;;;;;13.60;98.20;;;;;;5112946;28;19968;-65
2022/11/23 12:08:42;;;;;;;;;;;13.60;98.20;;;;;;5091452;28;19920;-65
2022/11/23 12:11:08;;;;;;;;;;;13.40;98.20;;;;;;5092270;28;19924;-68
2022/11/23 12:13:34;;;;;;;;;;;13.60;98.20;;;;;;5080991;28;20337;-68
2022/11/23 12:16:05;;;;;;;;;;;13.50;98.20;;;;;;5113297;28;19924;-68
2022/11/23 12:18:35;;;;;;;;;;;13.60;98.20;;;;;;5119977;28;19979;-65
2022/11/23 12:21:02;;;;;;;;;;;13.40;98.20;;;;;;5092162;28;19928;-65
2022/11/23 12:23:30;;;;;;;;;;;13.40;98.30;;;;;;5092037;28;20378;-65
2022/11/23 12:26:07;;;;;;;;;;;13.80;98.30;;;;;;5117807;28;19923;-64
2022/11/23 12:28:39;;;;;;;;;;;13.70;98.20;;;;;;5101514;28;19924;-65
2022/11/23 12:31:24;;;;;;;;;;;13.40;98.10;;;;;;5121532;27;19931;-65
2022/11/23 12:33:56;;;;;;;;;;;13.50;98.10;;;;;;5099375;28;20301;-65
2022/11/23 12:36:22;;;;;;;;;;;;;;;;;;5116178;28;19923;-66
2022/11/23 12:38:51;;;;;;;;;;;13.60;98.00;;;;;;5097831;28;19923;-65
2022/11/23 12:41:25;;;;;;;;;;;13.60;98.00;;;;;;5115823;28;20029;-66
2022/11/23 12:43:51;;;;;;;;;;;;;;;;;;5110771;28;19939;-66
2022/11/23 12:46:36;;;;;;;;;;;13.60;97.90;;;;;;5096452;28;19924;-65
2022/11/23 12:49:02;;;;;;;;;;;13.60;97.70;;;;;;5113828;28;19973;-65
2022/11/23 12:51:28;;;;;;;;;;;;;;;;;;5130716;27;19978;-66
2022/11/23 12:54:12;;;;;;;;;;;13.80;97.70;;;;;;5114963;28;20053;-66
2022/11/23 12:56:54;;;;;;;;;;;13.70;97.80;;;;;;5132489;27;20334;-70
2022/11/23 12:59:19;;;;;;;;;;;13.60;97.90;;;;;;5098492;28;20393;-69
2022/11/23 13:01:46;;;;;;;;;;;13.50;97.90;;;;;;5098682;28;19924;-70
2022/11/23 13:04:30;;;;;;;;;;;13.50;98.10;;;;;;5098836;28;19923;-65
2022/11/23 13:07:08;;;;;;;;;;;13.60;97.90;;;;;;5127357;27;19939;-67
2022/11/23 13:09:50;;;;;;;;;;;13.50;97.80;;;;;;5129836;27;19987;-69
2022/11/23 13:12:20;;;;;;;;;;;13.70;98.00;;;;;;5098405;28;20011;-68
2022/11/23 13:15:24;;;;;;;;;;;13.50;98.00;;;;;;5078081;28;19928;-65
2022/11/23 13:17:50;;;;;;;;;;;13.80;98.10;;;;;;5094136;28;19924;-66
2022/11/23 13:20:29;;;;;;;;;;;13.40;98.00;;;;;;5077329;28;19924;-66
2022/11/23 13:22:55;;;;;;;;;;;13.60;98.10;;;;;;5077281;28;19970;-66
2022/11/23 13:25:23;;;;;;;;;;;13.40;98.00;;;;;;5093989;28;19928;-65
2022/11/23 13:27:48;;;;;;;;;;;13.50;98.00;;;;;;5093863;28;20381;-64
2022/11/23 13:30:23;;;;;;;;;;;13.70;98.00;;;;;;5088886;28;19939;-71
2022/11/23 13:32:54;;;;;;;;;;;13.50;97.90;;;;;;5093881;28;19924;-67
2022/11/23 13:35:20;;;;;;;;;;;13.50;97.90;;;;;;5076763;28;20439;-66
2022/11/23 13:37:54;;;;;;;;;;;13.70;98.00;;;;;;5077025;28;19924;-67
2022/11/23 13:40:30;;;;;;;;;;;13.50;97.90;;;;;;5093532;28;19982;-68
2022/11/23 13:42:58;;;;;;;;;;;13.20;97.80;;;;;;5093659;28;20003;-65
2022/11/23 13:45:28;;;;;;;;;;;13.50;97.80;;;;;;5076952;28;19979;-65
2022/11/23 13:48:15;;;;;;;;;;;13.60;97.80;;;;;;5078401;28;20296;-65
2022/11/23 13:50:46;;;;;;;;;;;13.30;97.70;;;;;;5101783;28;19935;-66
2022/11/23 13:53:20;;;;;;;;;;;13.60;97.70;;;;;;5114844;27;19924;-65
2022/11/23 13:55:46;;;;;;;;;;;13.40;97.70;;;;;;5111205;28;20300;-64
2022/11/23 13:58:34;;;;;;;;;;;13.30;97.60;;;;;;5129739;27;19924;-65
2022/11/23 14:01:00;;;;;;;;;;;13.60;97.70;;;;;;5114898;28;19982;-65
2022/11/23 14:03:26;;;;;;;;;;;;;;;;;;5115620;28;19924;-65
2022/11/23 14:05:52;;;;;;;;;;;13.40;97.60;;;;;;5115041;28;19931;-64
2022/11/23 14:08:18;;;;;;;;;;;;;;;;;;5106909;28;19924;-67
2022/11/23 14:10:44;;;;;;;;;;;13.40;97.60;;;;;;5115419;28;19923;-65
2022/11/23 14:13:17;;;;;;;;;;;13.50;97.60;;;;;;5114481;28;19977;-66
2022/11/23 14:15:44;;;;;;;;;;;13.30;96.90;;;;;;5115421;28;20389;-66
2022/11/23 14:18:26;;;;;;;;;;;13.30;96.60;;;;;;5090461;28;19927;-67
2022/11/23 14:20:52;;;;;;;;;;;;;;;;;;5108289;28;19924;-68
2022/11/23 14:23:24;;;;;;;;;;;13.10;96.80;;;;;;5085976;28;19959;-67
2022/11/23 14:26:02;;;;;;;;;;;13.10;96.90;;;;;;5108314;28;19994;-66
2022/11/23 14:28:37;;;;;;;;;;;13.00;96.80;;;;;;5110500;27;19924;-65
2022/11/23 14:31:20;;;;;;;;;;;13.10;96.90;;;;;;5117062;27;20301;-66